sensor_id;sensor_type;location;lat;lon;timestamp;P1;durP1;ratioP1;P2;durP2;ratioP2
26277;SDS011;14000;52.056;8.510;2023-05-07T00:01:42;30.00;;;20.50;;
26277;SDS011;14000;52.056;8.510;2023-05-07T00:04:08;32.73;;;21.70;;
26277;SDS011;14000;52.056;8.510;2023-05-07T00:06:34;33.53;;;21.47;;
26277;SDS011;14000;52.056;8.510;2023-05-07T00:08:59;33.67;;;21.70;;
26277;SDS011;14000;52.056;8.510;2023-05-07T00:11:26;34.73;;;22.93;;
26277;SDS011;14000;52.056;8.510;2023-05-07T00:13:52;32.40;;;22.13;;
26277;SDS011;14000;52.056;8.510;2023-05-07T00:16:17;33.07;;;21.37;;
26277;SDS011;14000;52.056;8.510;2023-05-07T00:18:43;35.27;;;21.83;;
26277;SDS011;14000;52.056;8.510;2023-05-07T00:21:10;34.53;;;22.70;;
26277;SDS011;14000;52.056;8.510;2023-05-07T00:23:36;31.83;;;21.63;;
26277;SDS011;14000;52.056;8.510;2023-05-07T00:26:02;35.60;;;22.70;;
26277;SDS011;14000;52.056;8.510;2023-05-07T00:28:28;30.53;;;20.97;;
26277;SDS011;14000;52.056;8.510;2023-05-07T00:30:54;34.07;;;21.87;;
26277;SDS011;14000;52.056;8.510;2023-05-07T00:33:20;33.33;;;22.03;;
26277;SDS011;14000;52.056;8.510;2023-05-07T00:35:45;37.50;;;22.60;;
26277;SDS011;14000;52.056;8.510;2023-05-07T00:38:11;33.33;;;22.83;;
26277;SDS011;14000;52.056;8.510;2023-05-07T00:40:37;34.13;;;22.57;;
26277;SDS011;14000;52.056;8.510;2023-05-07T00:43:02;34.00;;;22.63;;
26277;SDS011;14000;52.056;8.510;2023-05-07T00:45:28;33.10;;;21.67;;
26277;SDS011;14000;52.056;8.510;2023-05-07T00:47:55;34.83;;;22.13;;
26277;SDS011;14000;52.056;8.510;2023-05-07T00:50:22;36.00;;;23.93;;
26277;SDS011;14000;52.056;8.510;2023-05-07T00:52:48;36.30;;;22.93;;
26277;SDS011;14000;52.056;8.510;2023-05-07T00:55:14;37.07;;;22.93;;
26277;SDS011;14000;52.056;8.510;2023-05-07T00:57:40;35.17;;;22.23;;
26277;SDS011;14000;52.056;8.510;2023-05-07T01:00:07;34.67;;;23.33;;
26277;SDS011;14000;52.056;8.510;2023-05-07T01:02:43;36.33;;;23.50;;
26277;SDS011;14000;52.056;8.510;2023-05-07T01:05:09;36.23;;;21.90;;
26277;SDS011;14000;52.056;8.510;2023-05-07T01:07:38;36.40;;;23.43;;
26277;SDS011;14000;52.056;8.510;2023-05-07T01:10:06;33.03;;;21.40;;
26277;SDS011;14000;52.056;8.510;2023-05-07T01:12:32;34.97;;;22.93;;
26277;SDS011;14000;52.056;8.510;2023-05-07T01:14:59;35.50;;;23.30;;
26277;SDS011;14000;52.056;8.510;2023-05-07T01:17:25;35.17;;;23.37;;
26277;SDS011;14000;52.056;8.510;2023-05-07T01:19:50;35.77;;;23.50;;
26277;SDS011;14000;52.056;8.510;2023-05-07T01:22:23;35.70;;;23.47;;
26277;SDS011;14000;52.056;8.510;2023-05-07T01:25:12;34.47;;;22.17;;
26277;SDS011;14000;52.056;8.510;2023-05-07T01:27:38;36.80;;;23.77;;
26277;SDS011;14000;52.056;8.510;2023-05-07T01:30:04;35.03;;;24.10;;
26277;SDS011;14000;52.056;8.510;2023-05-07T01:32:43;39.10;;;24.60;;
26277;SDS011;14000;52.056;8.510;2023-05-07T01:35:17;37.90;;;23.70;;
26277;SDS011;14000;52.056;8.510;2023-05-07T01:37:45;35.80;;;23.50;;
26277;SDS011;14000;52.056;8.510;2023-05-07T01:40:12;42.30;;;25.33;;
26277;SDS011;14000;52.056;8.510;2023-05-07T01:42:38;36.90;;;23.57;;
26277;SDS011;14000;52.056;8.510;2023-05-07T01:45:06;40.03;;;25.20;;
26277;SDS011;14000;52.056;8.510;2023-05-07T01:47:32;41.73;;;26.50;;
26277;SDS011;14000;52.056;8.510;2023-05-07T01:49:58;39.20;;;25.30;;
26277;SDS011;14000;52.056;8.510;2023-05-07T01:52:24;38.77;;;25.30;;
26277;SDS011;14000;52.056;8.510;2023-05-07T01:54:50;36.10;;;23.30;;
26277;SDS011;14000;52.056;8.510;2023-05-07T01:57:16;41.67;;;26.47;;
26277;SDS011;14000;52.056;8.510;2023-05-07T01:59:41;38.53;;;26.33;;
26277;SDS011;14000;52.056;8.510;2023-05-07T02:02:07;39.87;;;25.47;;
26277;SDS011;14000;52.056;8.510;2023-05-07T02:04:32;40.33;;;25.37;;
26277;SDS011;14000;52.056;8.510;2023-05-07T02:06:58;37.50;;;25.43;;
26277;SDS011;14000;52.056;8.510;2023-05-07T02:09:23;43.73;;;26.77;;
26277;SDS011;14000;52.056;8.510;2023-05-07T02:11:49;37.13;;;24.80;;
26277;SDS011;14000;52.056;8.510;2023-05-07T02:14:14;37.50;;;25.23;;
26277;SDS011;14000;52.056;8.510;2023-05-07T02:16:40;39.77;;;26.03;;
26277;SDS011;14000;52.056;8.510;2023-05-07T02:19:06;38.03;;;25.97;;
26277;SDS011;14000;52.056;8.510;2023-05-07T02:21:32;39.73;;;25.90;;
26277;SDS011;14000;52.056;8.510;2023-05-07T02:23:57;38.80;;;25.80;;
26277;SDS011;14000;52.056;8.510;2023-05-07T02:26:23;43.10;;;25.17;;
26277;SDS011;14000;52.056;8.510;2023-05-07T02:28:48;36.20;;;24.50;;
26277;SDS011;14000;52.056;8.510;2023-05-07T02:31:14;38.23;;;25.67;;
26277;SDS011;14000;52.056;8.510;2023-05-07T02:33:39;39.33;;;24.67;;
26277;SDS011;14000;52.056;8.510;2023-05-07T02:36:06;42.20;;;25.73;;
26277;SDS011;14000;52.056;8.510;2023-05-07T02:38:33;42.03;;;27.00;;
26277;SDS011;14000;52.056;8.510;2023-05-07T02:40:59;39.03;;;25.90;;
26277;SDS011;14000;52.056;8.510;2023-05-07T02:43:25;43.67;;;25.47;;
26277;SDS011;14000;52.056;8.510;2023-05-07T02:45:59;40.60;;;25.87;;
26277;SDS011;14000;52.056;8.510;2023-05-07T02:48:27;42.60;;;26.27;;
26277;SDS011;14000;52.056;8.510;2023-05-07T02:50:53;39.43;;;25.27;;
26277;SDS011;14000;52.056;8.510;2023-05-07T02:53:19;42.83;;;26.53;;
26277;SDS011;14000;52.056;8.510;2023-05-07T02:55:46;39.80;;;26.40;;
26277;SDS011;14000;52.056;8.510;2023-05-07T02:58:12;40.73;;;26.63;;
26277;SDS011;14000;52.056;8.510;2023-05-07T03:00:38;41.37;;;26.53;;
26277;SDS011;14000;52.056;8.510;2023-05-07T03:03:05;40.70;;;26.67;;
26277;SDS011;14000;52.056;8.510;2023-05-07T03:05:30;39.83;;;26.13;;
26277;SDS011;14000;52.056;8.510;2023-05-07T03:07:56;40.60;;;26.67;;
26277;SDS011;14000;52.056;8.510;2023-05-07T03:10:22;39.77;;;26.30;;
26277;SDS011;14000;52.056;8.510;2023-05-07T03:12:47;40.80;;;26.83;;
26277;SDS011;14000;52.056;8.510;2023-05-07T03:15:13;43.37;;;27.03;;
26277;SDS011;14000;52.056;8.510;2023-05-07T03:17:38;40.73;;;26.63;;
26277;SDS011;14000;52.056;8.510;2023-05-07T03:20:04;40.13;;;26.47;;
26277;SDS011;14000;52.056;8.510;2023-05-07T03:22:30;42.73;;;26.77;;
26277;SDS011;14000;52.056;8.510;2023-05-07T03:24:56;45.03;;;26.00;;
26277;SDS011;14000;52.056;8.510;2023-05-07T03:27:22;40.47;;;25.80;;
26277;SDS011;14000;52.056;8.510;2023-05-07T03:29:48;42.43;;;26.93;;
26277;SDS011;14000;52.056;8.510;2023-05-07T03:32:13;41.47;;;27.47;;
26277;SDS011;14000;52.056;8.510;2023-05-07T03:34:39;40.37;;;26.13;;
26277;SDS011;14000;52.056;8.510;2023-05-07T03:37:05;39.40;;;26.77;;
26277;SDS011;14000;52.056;8.510;2023-05-07T03:39:30;42.27;;;27.03;;
26277;SDS011;14000;52.056;8.510;2023-05-07T03:41:57;39.33;;;26.63;;
26277;SDS011;14000;52.056;8.510;2023-05-07T03:44:23;39.83;;;27.13;;
26277;SDS011;14000;52.056;8.510;2023-05-07T03:46:48;43.30;;;27.30;;
26277;SDS011;14000;52.056;8.510;2023-05-07T03:49:14;42.47;;;26.73;;
26277;SDS011;14000;52.056;8.510;2023-05-07T03:51:39;43.60;;;27.40;;
26277;SDS011;14000;52.056;8.510;2023-05-07T03:54:05;44.67;;;27.43;;
26277;SDS011;14000;52.056;8.510;2023-05-07T03:56:31;38.80;;;26.60;;
26277;SDS011;14000;52.056;8.510;2023-05-07T03:58:56;40.17;;;26.27;;
26277;SDS011;14000;52.056;8.510;2023-05-07T04:01:22;41.50;;;26.67;;
26277;SDS011;14000;52.056;8.510;2023-05-07T04:03:47;47.00;;;29.73;;
26277;SDS011;14000;52.056;8.510;2023-05-07T04:06:13;43.17;;;28.20;;
26277;SDS011;14000;52.056;8.510;2023-05-07T04:08:40;45.63;;;27.90;;
26277;SDS011;14000;52.056;8.510;2023-05-07T04:11:06;45.10;;;28.97;;
26277;SDS011;14000;52.056;8.510;2023-05-07T04:13:31;42.73;;;28.23;;
26277;SDS011;14000;52.056;8.510;2023-05-07T04:15:57;44.30;;;28.67;;
26277;SDS011;14000;52.056;8.510;2023-05-07T04:18:22;44.77;;;27.77;;
26277;SDS011;14000;52.056;8.510;2023-05-07T04:20:48;44.47;;;29.60;;
26277;SDS011;14000;52.056;8.510;2023-05-07T04:23:16;44.77;;;28.77;;
26277;SDS011;14000;52.056;8.510;2023-05-07T04:25:42;44.87;;;28.63;;
26277;SDS011;14000;52.056;8.510;2023-05-07T04:28:08;49.57;;;29.50;;
26277;SDS011;14000;52.056;8.510;2023-05-07T04:30:33;44.27;;;29.47;;
26277;SDS011;14000;52.056;8.510;2023-05-07T04:32:59;44.80;;;28.40;;
26277;SDS011;14000;52.056;8.510;2023-05-07T04:35:24;42.53;;;28.67;;
26277;SDS011;14000;52.056;8.510;2023-05-07T04:37:50;44.00;;;29.03;;
26277;SDS011;14000;52.056;8.510;2023-05-07T04:40:15;46.33;;;28.83;;
26277;SDS011;14000;52.056;8.510;2023-05-07T04:42:41;46.00;;;29.63;;
26277;SDS011;14000;52.056;8.510;2023-05-07T04:45:07;45.10;;;27.33;;
26277;SDS011;14000;52.056;8.510;2023-05-07T04:47:33;42.07;;;26.97;;
26277;SDS011;14000;52.056;8.510;2023-05-07T04:49:59;45.67;;;29.00;;
26277;SDS011;14000;52.056;8.510;2023-05-07T04:52:25;45.37;;;29.60;;
26277;SDS011;14000;52.056;8.510;2023-05-07T04:54:50;41.47;;;28.43;;
26277;SDS011;14000;52.056;8.510;2023-05-07T04:57:16;48.77;;;30.47;;
26277;SDS011;14000;52.056;8.510;2023-05-07T04:59:42;46.83;;;30.33;;
26277;SDS011;14000;52.056;8.510;2023-05-07T05:02:09;48.17;;;30.50;;
26277;SDS011;14000;52.056;8.510;2023-05-07T05:04:35;44.60;;;28.73;;
26277;SDS011;14000;52.056;8.510;2023-05-07T05:07:01;44.20;;;29.40;;
26277;SDS011;14000;52.056;8.510;2023-05-07T05:09:29;48.40;;;30.50;;
26277;SDS011;14000;52.056;8.510;2023-05-07T05:11:54;46.77;;;29.67;;
26277;SDS011;14000;52.056;8.510;2023-05-07T05:14:20;44.93;;;29.43;;
26277;SDS011;14000;52.056;8.510;2023-05-07T05:16:46;48.53;;;29.07;;
26277;SDS011;14000;52.056;8.510;2023-05-07T05:19:11;44.73;;;27.73;;
26277;SDS011;14000;52.056;8.510;2023-05-07T05:21:37;45.83;;;28.97;;
26277;SDS011;14000;52.056;8.510;2023-05-07T05:24:02;44.10;;;28.17;;
26277;SDS011;14000;52.056;8.510;2023-05-07T05:26:28;47.27;;;29.43;;
26277;SDS011;14000;52.056;8.510;2023-05-07T05:28:54;44.20;;;29.37;;
26277;SDS011;14000;52.056;8.510;2023-05-07T05:31:19;45.97;;;28.17;;
26277;SDS011;14000;52.056;8.510;2023-05-07T05:33:45;44.10;;;27.77;;
26277;SDS011;14000;52.056;8.510;2023-05-07T05:36:11;43.43;;;27.80;;
26277;SDS011;14000;52.056;8.510;2023-05-07T05:38:38;49.70;;;28.97;;
26277;SDS011;14000;52.056;8.510;2023-05-07T05:41:04;46.00;;;29.87;;
26277;SDS011;14000;52.056;8.510;2023-05-07T05:43:30;48.57;;;30.33;;
26277;SDS011;14000;52.056;8.510;2023-05-07T05:45:56;43.10;;;27.00;;
26277;SDS011;14000;52.056;8.510;2023-05-07T05:48:22;48.63;;;29.30;;
26277;SDS011;14000;52.056;8.510;2023-05-07T05:50:48;43.70;;;28.40;;
26277;SDS011;14000;52.056;8.510;2023-05-07T05:53:14;45.17;;;27.90;;
26277;SDS011;14000;52.056;8.510;2023-05-07T05:55:40;46.87;;;28.80;;
26277;SDS011;14000;52.056;8.510;2023-05-07T05:58:06;45.40;;;28.07;;
26277;SDS011;14000;52.056;8.510;2023-05-07T06:00:32;45.77;;;28.53;;
26277;SDS011;14000;52.056;8.510;2023-05-07T06:02:58;40.33;;;27.17;;
26277;SDS011;14000;52.056;8.510;2023-05-07T06:05:23;44.97;;;29.13;;
26277;SDS011;14000;52.056;8.510;2023-05-07T06:07:49;41.67;;;26.87;;
26277;SDS011;14000;52.056;8.510;2023-05-07T06:10:15;42.70;;;26.70;;
26277;SDS011;14000;52.056;8.510;2023-05-07T06:12:40;43.17;;;27.87;;
26277;SDS011;14000;52.056;8.510;2023-05-07T06:15:06;40.23;;;25.77;;
26277;SDS011;14000;52.056;8.510;2023-05-07T06:17:32;43.60;;;27.43;;
26277;SDS011;14000;52.056;8.510;2023-05-07T06:19:57;42.27;;;27.10;;
26277;SDS011;14000;52.056;8.510;2023-05-07T06:22:23;49.23;;;29.63;;
26277;SDS011;14000;52.056;8.510;2023-05-07T06:24:49;45.77;;;26.57;;
26277;SDS011;14000;52.056;8.510;2023-05-07T06:27:14;39.13;;;25.57;;
26277;SDS011;14000;52.056;8.510;2023-05-07T06:29:40;41.27;;;26.77;;
26277;SDS011;14000;52.056;8.510;2023-05-07T06:32:06;38.97;;;25.37;;
26277;SDS011;14000;52.056;8.510;2023-05-07T06:34:35;35.90;;;22.80;;
26277;SDS011;14000;52.056;8.510;2023-05-07T06:37:01;33.93;;;21.53;;
26277;SDS011;14000;52.056;8.510;2023-05-07T06:39:27;40.77;;;25.37;;
26277;SDS011;14000;52.056;8.510;2023-05-07T06:41:52;35.60;;;23.00;;
26277;SDS011;14000;52.056;8.510;2023-05-07T06:44:18;36.70;;;23.27;;
26277;SDS011;14000;52.056;8.510;2023-05-07T06:46:44;37.97;;;22.53;;
26277;SDS011;14000;52.056;8.510;2023-05-07T06:49:10;37.70;;;22.47;;
26277;SDS011;14000;52.056;8.510;2023-05-07T06:51:37;34.27;;;22.77;;
26277;SDS011;14000;52.056;8.510;2023-05-07T06:54:02;34.67;;;21.47;;
26277;SDS011;14000;52.056;8.510;2023-05-07T06:56:29;37.53;;;22.50;;
26277;SDS011;14000;52.056;8.510;2023-05-07T06:58:55;34.67;;;22.67;;
26277;SDS011;14000;52.056;8.510;2023-05-07T07:01:21;36.50;;;21.60;;
26277;SDS011;14000;52.056;8.510;2023-05-07T07:03:46;34.83;;;21.13;;
26277;SDS011;14000;52.056;8.510;2023-05-07T07:06:12;35.43;;;20.60;;
26277;SDS011;14000;52.056;8.510;2023-05-07T07:08:38;33.20;;;19.67;;
26277;SDS011;14000;52.056;8.510;2023-05-07T07:11:04;32.23;;;19.90;;
26277;SDS011;14000;52.056;8.510;2023-05-07T07:13:30;30.53;;;18.80;;
26277;SDS011;14000;52.056;8.510;2023-05-07T07:15:55;30.07;;;18.03;;
26277;SDS011;14000;52.056;8.510;2023-05-07T07:18:21;31.23;;;18.57;;
26277;SDS011;14000;52.056;8.510;2023-05-07T07:20:47;29.07;;;18.23;;
26277;SDS011;14000;52.056;8.510;2023-05-07T07:23:13;28.77;;;17.90;;
26277;SDS011;14000;52.056;8.510;2023-05-07T07:25:39;26.27;;;16.87;;
26277;SDS011;14000;52.056;8.510;2023-05-07T07:28:05;28.40;;;17.23;;
26277;SDS011;14000;52.056;8.510;2023-05-07T07:30:30;25.50;;;15.73;;
26277;SDS011;14000;52.056;8.510;2023-05-07T07:32:56;26.57;;;16.23;;
26277;SDS011;14000;52.056;8.510;2023-05-07T07:35:27;28.13;;;17.23;;
26277;SDS011;14000;52.056;8.510;2023-05-07T07:37:56;25.10;;;16.30;;
26277;SDS011;14000;52.056;8.510;2023-05-07T07:40:22;28.87;;;16.27;;
26277;SDS011;14000;52.056;8.510;2023-05-07T07:42:48;26.40;;;16.13;;
26277;SDS011;14000;52.056;8.510;2023-05-07T07:45:13;24.33;;;15.97;;
26277;SDS011;14000;52.056;8.510;2023-05-07T07:47:39;27.50;;;16.53;;
26277;SDS011;14000;52.056;8.510;2023-05-07T07:50:05;24.83;;;15.70;;
26277;SDS011;14000;52.056;8.510;2023-05-07T07:52:32;25.90;;;15.20;;
26277;SDS011;14000;52.056;8.510;2023-05-07T07:54:57;25.80;;;15.77;;
26277;SDS011;14000;52.056;8.510;2023-05-07T07:57:23;25.77;;;15.47;;
26277;SDS011;14000;52.056;8.510;2023-05-07T07:59:49;25.13;;;15.80;;
26277;SDS011;14000;52.056;8.510;2023-05-07T08:02:15;24.23;;;15.60;;
26277;SDS011;14000;52.056;8.510;2023-05-07T08:04:40;27.13;;;16.50;;
26277;SDS011;14000;52.056;8.510;2023-05-07T08:07:08;26.00;;;16.10;;
26277;SDS011;14000;52.056;8.510;2023-05-07T08:09:37;24.77;;;14.73;;
26277;SDS011;14000;52.056;8.510;2023-05-07T08:12:04;22.90;;;14.47;;
26277;SDS011;14000;52.056;8.510;2023-05-07T08:14:33;25.63;;;14.97;;
26277;SDS011;14000;52.056;8.510;2023-05-07T08:16:59;22.30;;;14.07;;
26277;SDS011;14000;52.056;8.510;2023-05-07T08:19:25;24.77;;;14.60;;
26277;SDS011;14000;52.056;8.510;2023-05-07T08:21:50;22.13;;;13.70;;
26277;SDS011;14000;52.056;8.510;2023-05-07T08:24:16;22.57;;;13.67;;
26277;SDS011;14000;52.056;8.510;2023-05-07T08:26:43;22.37;;;13.40;;
26277;SDS011;14000;52.056;8.510;2023-05-07T08:29:10;20.47;;;12.63;;
26277;SDS011;14000;52.056;8.510;2023-05-07T08:31:35;21.40;;;13.40;;
26277;SDS011;14000;52.056;8.510;2023-05-07T08:34:03;21.07;;;13.37;;
26277;SDS011;14000;52.056;8.510;2023-05-07T08:36:29;19.93;;;12.10;;
26277;SDS011;14000;52.056;8.510;2023-05-07T08:38:55;20.87;;;13.10;;
26277;SDS011;14000;52.056;8.510;2023-05-07T08:41:20;20.77;;;12.30;;
26277;SDS011;14000;52.056;8.510;2023-05-07T08:43:47;19.73;;;12.40;;
26277;SDS011;14000;52.056;8.510;2023-05-07T08:46:18;21.87;;;13.33;;
26277;SDS011;14000;52.056;8.510;2023-05-07T08:48:49;22.57;;;13.07;;
26277;SDS011;14000;52.056;8.510;2023-05-07T08:51:16;21.10;;;12.13;;
26277;SDS011;14000;52.056;8.510;2023-05-07T08:53:43;20.20;;;12.47;;
26277;SDS011;14000;52.056;8.510;2023-05-07T08:56:09;20.10;;;12.50;;
26277;SDS011;14000;52.056;8.510;2023-05-07T08:58:35;21.43;;;12.93;;
26277;SDS011;14000;52.056;8.510;2023-05-07T09:01:02;20.07;;;12.50;;
26277;SDS011;14000;52.056;8.510;2023-05-07T09:03:35;19.63;;;12.30;;
26277;SDS011;14000;52.056;8.510;2023-05-07T09:06:03;18.70;;;11.87;;
26277;SDS011;14000;52.056;8.510;2023-05-07T09:08:28;20.97;;;12.00;;
26277;SDS011;14000;52.056;8.510;2023-05-07T09:10:54;17.33;;;10.73;;
26277;SDS011;14000;52.056;8.510;2023-05-07T09:13:20;18.00;;;11.23;;
26277;SDS011;14000;52.056;8.510;2023-05-07T09:15:46;18.73;;;11.87;;
26277;SDS011;14000;52.056;8.510;2023-05-07T09:18:12;19.87;;;12.27;;
26277;SDS011;14000;52.056;8.510;2023-05-07T09:20:38;20.47;;;11.90;;
26277;SDS011;14000;52.056;8.510;2023-05-07T09:23:04;20.23;;;13.00;;
26277;SDS011;14000;52.056;8.510;2023-05-07T09:25:32;16.87;;;10.93;;
26277;SDS011;14000;52.056;8.510;2023-05-07T09:27:59;19.60;;;11.60;;
26277;SDS011;14000;52.056;8.510;2023-05-07T09:30:32;17.70;;;10.90;;
26277;SDS011;14000;52.056;8.510;2023-05-07T09:32:59;19.90;;;11.47;;
26277;SDS011;14000;52.056;8.510;2023-05-07T09:35:25;18.23;;;11.90;;
26277;SDS011;14000;52.056;8.510;2023-05-07T09:37:57;18.93;;;12.27;;
26277;SDS011;14000;52.056;8.510;2023-05-07T09:40:27;18.07;;;11.17;;
26277;SDS011;14000;52.056;8.510;2023-05-07T09:42:54;16.60;;;9.90;;
26277;SDS011;14000;52.056;8.510;2023-05-07T09:45:27;18.33;;;10.87;;
26277;SDS011;14000;52.056;8.510;2023-05-07T09:47:53;18.57;;;10.73;;
26277;SDS011;14000;52.056;8.510;2023-05-07T09:50:27;16.93;;;11.23;;
26277;SDS011;14000;52.056;8.510;2023-05-07T09:52:55;17.93;;;10.47;;
26277;SDS011;14000;52.056;8.510;2023-05-07T09:55:22;18.57;;;11.27;;
26277;SDS011;14000;52.056;8.510;2023-05-07T09:57:50;19.83;;;11.93;;
26277;SDS011;14000;52.056;8.510;2023-05-07T10:00:17;17.10;;;9.80;;
26277;SDS011;14000;52.056;8.510;2023-05-07T10:02:45;18.10;;;11.27;;
26277;SDS011;14000;52.056;8.510;2023-05-07T10:05:17;16.67;;;9.87;;
26277;SDS011;14000;52.056;8.510;2023-05-07T10:07:43;18.93;;;11.07;;
26277;SDS011;14000;52.056;8.510;2023-05-07T10:10:10;17.60;;;10.10;;
26277;SDS011;14000;52.056;8.510;2023-05-07T10:12:37;17.80;;;10.43;;
26277;SDS011;14000;52.056;8.510;2023-05-07T10:15:05;18.20;;;10.47;;
26277;SDS011;14000;52.056;8.510;2023-05-07T10:17:33;17.93;;;10.63;;
26277;SDS011;14000;52.056;8.510;2023-05-07T10:20:01;19.73;;;10.50;;
26277;SDS011;14000;52.056;8.510;2023-05-07T10:22:28;16.70;;;9.83;;
26277;SDS011;14000;52.056;8.510;2023-05-07T10:25:02;17.37;;;10.13;;
26277;SDS011;14000;52.056;8.510;2023-05-07T10:27:31;15.97;;;9.30;;
26277;SDS011;14000;52.056;8.510;2023-05-07T10:30:01;16.80;;;9.77;;
26277;SDS011;14000;52.056;8.510;2023-05-07T10:32:47;15.83;;;9.57;;
26277;SDS011;14000;52.056;8.510;2023-05-07T10:35:26;16.43;;;9.67;;
26277;SDS011;14000;52.056;8.510;2023-05-07T10:37:56;15.13;;;9.20;;
26277;SDS011;14000;52.056;8.510;2023-05-07T10:40:22;31.60;;;17.53;;
26277;SDS011;14000;52.056;8.510;2023-05-07T10:42:55;16.97;;;9.20;;
26277;SDS011;14000;52.056;8.510;2023-05-07T10:45:23;15.67;;;9.83;;
26277;SDS011;14000;52.056;8.510;2023-05-07T10:50:41;15.53;;;9.37;;
26277;SDS011;14000;52.056;8.510;2023-05-07T10:53:20;16.87;;;9.90;;
26277;SDS011;14000;52.056;8.510;2023-05-07T10:56:23;17.43;;;9.60;;
26277;SDS011;14000;52.056;8.510;2023-05-07T10:58:43;16.70;;;8.33;;
26277;SDS011;14000;52.056;8.510;2023-05-07T11:01:09;14.90;;;8.87;;
26277;SDS011;14000;52.056;8.510;2023-05-07T11:03:37;14.17;;;7.70;;
26277;SDS011;14000;52.056;8.510;2023-05-07T11:06:45;13.50;;;7.50;;
26277;SDS011;14000;52.056;8.510;2023-05-07T11:15:02;15.60;;;7.83;;
26277;SDS011;14000;52.056;8.510;2023-05-07T11:17:32;14.77;;;8.13;;
26277;SDS011;14000;52.056;8.510;2023-05-07T11:19:59;13.50;;;8.20;;
26277;SDS011;14000;52.056;8.510;2023-05-07T11:25:04;13.97;;;7.83;;
26277;SDS011;14000;52.056;8.510;2023-05-07T11:27:30;12.37;;;7.20;;
26277;SDS011;14000;52.056;8.510;2023-05-07T11:29:57;12.80;;;7.40;;
26277;SDS011;14000;52.056;8.510;2023-05-07T11:32:27;11.77;;;6.63;;
26277;SDS011;14000;52.056;8.510;2023-05-07T11:34:57;12.57;;;7.93;;
26277;SDS011;14000;52.056;8.510;2023-05-07T11:37:24;13.23;;;6.80;;
26277;SDS011;14000;52.056;8.510;2023-05-07T11:39:51;11.83;;;6.27;;
26277;SDS011;14000;52.056;8.510;2023-05-07T11:42:36;12.23;;;7.37;;
26277;SDS011;14000;52.056;8.510;2023-05-07T11:45:03;12.87;;;7.30;;
26277;SDS011;14000;52.056;8.510;2023-05-07T11:47:30;12.60;;;6.40;;
26277;SDS011;14000;52.056;8.510;2023-05-07T11:49:56;10.90;;;6.10;;
26277;SDS011;14000;52.056;8.510;2023-05-07T11:52:22;13.37;;;7.03;;
26277;SDS011;14000;52.056;8.510;2023-05-07T11:54:49;12.90;;;6.13;;
26277;SDS011;14000;52.056;8.510;2023-05-07T11:57:19;11.20;;;5.47;;
26277;SDS011;14000;52.056;8.510;2023-05-07T11:59:46;10.43;;;5.83;;
26277;SDS011;14000;52.056;8.510;2023-05-07T12:02:14;10.30;;;5.50;;
26277;SDS011;14000;52.056;8.510;2023-05-07T12:04:40;10.30;;;5.73;;
26277;SDS011;14000;52.056;8.510;2023-05-07T12:07:15;16.47;;;9.17;;
26277;SDS011;14000;52.056;8.510;2023-05-07T12:09:42;11.60;;;6.60;;
26277;SDS011;14000;52.056;8.510;2023-05-07T12:12:08;10.57;;;5.33;;
26277;SDS011;14000;52.056;8.510;2023-05-07T12:14:38;11.73;;;5.40;;
26277;SDS011;14000;52.056;8.510;2023-05-07T12:17:05;10.97;;;5.67;;
26277;SDS011;14000;52.056;8.510;2023-05-07T12:19:31;10.90;;;5.77;;
26277;SDS011;14000;52.056;8.510;2023-05-07T12:21:59;10.80;;;5.37;;
26277;SDS011;14000;52.056;8.510;2023-05-07T12:24:26;10.70;;;5.00;;
26277;SDS011;14000;52.056;8.510;2023-05-07T12:26:52;9.93;;;5.03;;
26277;SDS011;14000;52.056;8.510;2023-05-07T12:29:21;10.43;;;5.20;;
26277;SDS011;14000;52.056;8.510;2023-05-07T12:31:47;9.50;;;4.77;;
26277;SDS011;14000;52.056;8.510;2023-05-07T12:34:14;10.33;;;5.10;;
26277;SDS011;14000;52.056;8.510;2023-05-07T12:36:40;9.97;;;4.87;;
26277;SDS011;14000;52.056;8.510;2023-05-07T12:39:06;10.67;;;4.87;;
26277;SDS011;14000;52.056;8.510;2023-05-07T12:44:23;9.97;;;4.83;;
26277;SDS011;14000;52.056;8.510;2023-05-07T12:46:49;14.23;;;7.20;;
26277;SDS011;14000;52.056;8.510;2023-05-07T12:49:16;12.27;;;6.27;;
26277;SDS011;14000;52.056;8.510;2023-05-07T12:51:43;10.97;;;5.00;;
26277;SDS011;14000;52.056;8.510;2023-05-07T12:54:08;11.50;;;5.20;;
26277;SDS011;14000;52.056;8.510;2023-05-07T12:56:37;10.87;;;5.07;;
26277;SDS011;14000;52.056;8.510;2023-05-07T12:59:02;11.80;;;4.70;;
26277;SDS011;14000;52.056;8.510;2023-05-07T13:01:29;10.20;;;4.90;;
26277;SDS011;14000;52.056;8.510;2023-05-07T13:03:57;10.63;;;4.90;;
26277;SDS011;14000;52.056;8.510;2023-05-07T13:06:26;9.40;;;4.40;;
26277;SDS011;14000;52.056;8.510;2023-05-07T13:08:51;9.73;;;4.67;;
26277;SDS011;14000;52.056;8.510;2023-05-07T13:11:17;9.73;;;4.60;;
26277;SDS011;14000;52.056;8.510;2023-05-07T13:13:43;12.07;;;5.27;;
26277;SDS011;14000;52.056;8.510;2023-05-07T13:16:09;10.87;;;5.40;;
26277;SDS011;14000;52.056;8.510;2023-05-07T13:18:36;9.93;;;4.40;;
26277;SDS011;14000;52.056;8.510;2023-05-07T13:21:03;10.73;;;4.70;;
26277;SDS011;14000;52.056;8.510;2023-05-07T13:23:29;11.20;;;4.80;;
26277;SDS011;14000;52.056;8.510;2023-05-07T13:25:55;10.53;;;5.00;;
26277;SDS011;14000;52.056;8.510;2023-05-07T13:28:21;10.17;;;4.90;;
26277;SDS011;14000;52.056;8.510;2023-05-07T13:30:48;11.37;;;4.43;;
26277;SDS011;14000;52.056;8.510;2023-05-07T13:33:13;9.73;;;4.70;;
26277;SDS011;14000;52.056;8.510;2023-05-07T13:35:40;9.80;;;4.73;;
26277;SDS011;14000;52.056;8.510;2023-05-07T13:38:06;10.70;;;5.40;;
26277;SDS011;14000;52.056;8.510;2023-05-07T13:40:31;10.13;;;5.00;;
26277;SDS011;14000;52.056;8.510;2023-05-07T13:42:57;12.20;;;5.73;;
26277;SDS011;14000;52.056;8.510;2023-05-07T13:45:24;10.63;;;4.80;;
26277;SDS011;14000;52.056;8.510;2023-05-07T13:47:50;9.83;;;4.97;;
26277;SDS011;14000;52.056;8.510;2023-05-07T13:50:16;11.03;;;4.70;;
26277;SDS011;14000;52.056;8.510;2023-05-07T13:52:42;11.90;;;5.83;;
26277;SDS011;14000;52.056;8.510;2023-05-07T13:55:15;10.63;;;5.43;;
26277;SDS011;14000;52.056;8.510;2023-05-07T13:57:42;11.40;;;4.93;;
26277;SDS011;14000;52.056;8.510;2023-05-07T14:00:08;10.77;;;5.20;;
26277;SDS011;14000;52.056;8.510;2023-05-07T14:02:34;9.87;;;5.03;;
26277;SDS011;14000;52.056;8.510;2023-05-07T14:04:59;10.63;;;5.37;;
26277;SDS011;14000;52.056;8.510;2023-05-07T14:07:25;13.60;;;5.70;;
26277;SDS011;14000;52.056;8.510;2023-05-07T14:09:51;11.10;;;5.47;;
26277;SDS011;14000;52.056;8.510;2023-05-07T14:12:16;12.27;;;5.77;;
26277;SDS011;14000;52.056;8.510;2023-05-07T14:14:42;11.57;;;6.00;;
26277;SDS011;14000;52.056;8.510;2023-05-07T14:17:07;12.73;;;5.80;;
26277;SDS011;14000;52.056;8.510;2023-05-07T14:19:33;12.97;;;6.97;;
26277;SDS011;14000;52.056;8.510;2023-05-07T14:21:59;12.77;;;7.20;;
26277;SDS011;14000;52.056;8.510;2023-05-07T14:24:24;12.77;;;6.73;;
26277;SDS011;14000;52.056;8.510;2023-05-07T14:26:50;13.60;;;6.40;;
26277;SDS011;14000;52.056;8.510;2023-05-07T14:29:16;11.90;;;6.33;;
26277;SDS011;14000;52.056;8.510;2023-05-07T14:31:44;11.20;;;5.83;;
26277;SDS011;14000;52.056;8.510;2023-05-07T14:34:10;10.70;;;5.47;;
26277;SDS011;14000;52.056;8.510;2023-05-07T14:36:35;14.13;;;6.50;;
26277;SDS011;14000;52.056;8.510;2023-05-07T14:39:01;13.10;;;6.43;;